T67 weather

Public forecast

Using degrees Fahrenheit for public forecast. Weather courtesy of forecast.io.

Closest aviation weather report (METAR) to Hicks Air Field

Closest report is Fort Worth Alliance Airport, 5.8 nm (10.7 km) NE. Retrieved 2020/08/11 23:53 UTC (56 minutes ago):

KAFW 112353Z 17012G18KT 10SM FEW070 SCT250 37/19 A2985 RMK AO2 SLP087 T03670194 10378 20350 56012

Closest aviation forecast (TAF) to Hicks Air Field

Closest forecast is Fort Worth Alliance Airport, 5.8 nm (10.7 km) NE. Retrieved 2020-08-12 00:36 UTC (13 minutes ago):

TAF KAFW 112335Z 1200/1224 18011KT P6SM FEW070